createdAt,value
2022-11-05T00:01:49.088Z,20.20
2022-11-05T00:04:34.521Z,22.60
2022-11-05T00:07:26.008Z,19.40
2022-11-05T00:10:03.701Z,20.70
2022-11-05T00:12:57.848Z,20.37
2022-11-05T00:15:43.191Z,21.00
2022-11-05T00:18:11.322Z,20.90
2022-11-05T00:20:39.340Z,20.90
2022-11-05T00:23:25.838Z,20.90
2022-11-05T00:26:00.100Z,20.37
2022-11-05T00:28:29.645Z,20.67
2022-11-05T00:31:02.166Z,19.73
2022-11-05T00:33:30.464Z,21.23
2022-11-05T00:35:58.597Z,20.90
2022-11-05T00:38:27.493Z,20.60
2022-11-05T00:40:55.625Z,20.57
2022-11-05T00:43:42.521Z,20.43
2022-11-05T00:46:10.694Z,20.60
2022-11-05T00:48:56.150Z,21.53
2022-11-05T00:51:24.526Z,22.83
2022-11-05T00:53:52.660Z,22.90
2022-11-05T00:56:20.716Z,23.00
2022-11-05T00:58:50.165Z,21.30
2022-11-05T01:01:18.631Z,22.23
2022-11-05T01:03:51.524Z,20.80
2022-11-05T01:06:20.066Z,20.13
2022-11-05T01:08:48.136Z,20.33
2022-11-05T01:11:33.488Z,22.03
2022-11-05T01:14:05.195Z,23.33
2022-11-05T01:16:33.509Z,23.03
2022-11-05T01:19:02.597Z,22.37
2022-11-05T01:21:30.817Z,22.27
2022-11-05T01:23:58.872Z,20.83
2022-11-05T01:26:28.098Z,23.00
2022-11-05T01:28:57.703Z,21.40
2022-11-05T01:31:28.679Z,20.80
2022-11-05T01:33:56.735Z,21.03
2022-11-05T01:36:24.776Z,23.00
2022-11-05T01:38:52.862Z,21.10
2022-11-05T01:41:21.113Z,21.50
2022-11-05T01:43:51.249Z,21.67
2022-11-05T01:46:22.858Z,22.50
2022-11-05T01:48:58.635Z,21.90
2022-11-05T01:51:30.449Z,21.73
2022-11-05T01:54:04.152Z,22.97
2022-11-05T01:56:37.379Z,21.83
2022-11-05T01:59:10.865Z,22.80
2022-11-05T02:01:39.242Z,21.80
2022-11-05T02:04:12.956Z,22.50
2022-11-05T02:06:46.292Z,23.47
2022-11-05T02:09:20.078Z,23.70
2022-11-05T02:11:48.749Z,22.97
2022-11-05T02:14:16.842Z,23.17
2022-11-05T02:16:50.054Z,23.97
2022-11-05T02:19:45.782Z,22.03
2022-11-05T02:23:01.288Z,23.30
2022-11-05T02:26:00.569Z,22.43
2022-11-05T02:28:50.213Z,25.70
2022-11-05T02:31:27.800Z,25.80
2022-11-05T02:34:04.584Z,25.33
2022-11-05T02:36:45.421Z,25.60
2022-11-05T02:39:28.885Z,26.63
2022-11-05T02:42:05.936Z,26.50
2022-11-05T02:44:41.495Z,27.17
2022-11-05T02:47:21.423Z,28.00
2022-11-05T02:49:55.414Z,26.07
2022-11-05T02:52:30.221Z,27.00
2022-11-05T02:55:04.363Z,27.90
2022-11-05T02:57:36.778Z,28.50
2022-11-05T03:00:07.583Z,28.10
2022-11-05T03:02:37.459Z,26.90
2022-11-05T03:05:06.430Z,26.97
2022-11-05T03:07:44.883Z,29.07
2022-11-05T03:10:32.976Z,28.00
2022-11-05T03:13:09.423Z,27.77
2022-11-05T03:15:50.821Z,29.63
2022-11-05T03:18:27.630Z,28.60
2022-11-05T03:21:04.475Z,31.43
2022-11-05T03:23:37.428Z,32.77
2022-11-05T03:26:12.104Z,30.50
2022-11-05T03:28:44.361Z,32.07
2022-11-05T03:31:14.630Z,30.40
2022-11-05T03:33:46.649Z,29.47
2022-11-05T03:36:20.630Z,30.23
2022-11-05T03:38:53.035Z,32.77
2022-11-05T03:41:23.763Z,29.80
2022-11-05T03:43:56.060Z,30.00
2022-11-05T03:46:29.243Z,31.70
2022-11-05T03:49:02.468Z,32.97
2022-11-05T03:51:37.968Z,32.13
2022-11-05T03:54:06.978Z,31.37
2022-11-05T03:56:39.519Z,33.70
2022-11-05T03:59:10.421Z,30.97
2022-11-05T04:01:39.064Z,32.90
2022-11-05T04:04:09.413Z,30.33
2022-11-05T04:06:54.915Z,30.93
2022-11-05T04:09:40.375Z,31.80
2022-11-05T04:12:27.261Z,32.00
2022-11-05T04:14:55.313Z,33.70
2022-11-05T04:17:22.482Z,33.30
2022-11-05T04:20:09.327Z,33.20
2022-11-05T04:22:54.849Z,33.13
2022-11-05T04:25:24.055Z,31.60
2022-11-05T04:27:52.423Z,32.93
2022-11-05T04:30:20.574Z,32.63
2022-11-05T04:33:04.904Z,32.37
2022-11-05T04:35:36.286Z,32.93
2022-11-05T04:38:04.963Z,35.47
2022-11-05T04:40:33.552Z,31.80
2022-11-05T04:43:02.008Z,33.43
2022-11-05T04:45:33.096Z,33.60
2022-11-05T04:48:01.231Z,32.30
2022-11-05T04:50:29.811Z,33.90
2022-11-05T04:52:59.961Z,32.50
2022-11-05T04:55:28.515Z,35.80
2022-11-05T04:57:56.987Z,34.30
2022-11-05T05:00:25.619Z,32.90
2022-11-05T05:02:53.743Z,34.00
2022-11-05T05:05:23.146Z,36.90
2022-11-05T05:07:51.245Z,34.10
2022-11-05T05:10:20.850Z,36.00
2022-11-05T05:12:48.907Z,35.47
2022-11-05T05:15:17.179Z,35.90
2022-11-05T05:17:45.280Z,35.67
2022-11-05T05:20:30.857Z,35.03
2022-11-05T05:22:58.916Z,36.40
2022-11-05T05:25:28.681Z,36.47
2022-11-05T05:27:58.444Z,34.07
2022-11-05T05:30:27.017Z,34.80
2022-11-05T05:32:55.185Z,34.37
2022-11-05T05:35:23.235Z,33.70
2022-11-05T05:37:56.094Z,32.50
2022-11-05T05:40:24.244Z,34.70
2022-11-05T05:42:56.358Z,34.40
2022-11-05T05:45:24.411Z,33.83
2022-11-05T05:47:52.528Z,34.17
2022-11-05T05:50:20.623Z,34.20
2022-11-05T05:52:49.139Z,32.80
2022-11-05T05:55:17.322Z,33.93
2022-11-05T05:57:45.370Z,34.60
2022-11-05T06:00:16.033Z,33.73
2022-11-05T06:02:44.307Z,34.47
2022-11-05T06:05:12.486Z,32.53
2022-11-05T06:07:40.593Z,33.93
2022-11-05T06:10:09.293Z,32.50
2022-11-05T06:12:37.763Z,30.83
2022-11-05T06:15:07.042Z,31.30
2022-11-05T06:17:36.510Z,30.77
2022-11-05T06:20:04.939Z,30.40
2022-11-05T06:22:33.184Z,28.03
2022-11-05T06:25:01.482Z,32.00
2022-11-05T06:27:30.111Z,30.17
2022-11-05T06:29:58.215Z,32.40
2022-11-05T06:32:26.459Z,30.23
2022-11-05T06:34:55.967Z,30.67
2022-11-05T06:37:24.049Z,28.50
2022-11-05T06:39:52.176Z,29.43
2022-11-05T06:42:20.289Z,29.33
2022-11-05T06:44:48.964Z,28.87
2022-11-05T06:47:17.177Z,27.77
2022-11-05T06:49:45.285Z,28.00
2022-11-05T06:52:15.815Z,29.47
2022-11-05T06:54:45.018Z,27.77
2022-11-05T06:57:14.267Z,27.67
2022-11-05T06:59:42.695Z,26.50
2022-11-05T07:02:13.077Z,27.83
2022-11-05T07:04:41.133Z,28.47
2022-11-05T07:07:09.142Z,27.37
2022-11-05T07:09:40.711Z,27.50
2022-11-05T07:12:09.159Z,27.10
2022-11-05T07:14:37.235Z,26.43
2022-11-05T07:17:05.548Z,27.00
2022-11-05T07:19:33.661Z,25.67
2022-11-05T07:22:01.723Z,25.67
2022-11-05T07:24:30.207Z,26.23
2022-11-05T07:26:59.672Z,24.53
2022-11-05T07:29:27.790Z,26.10
2022-11-05T07:31:55.888Z,24.40
2022-11-05T07:34:24.027Z,26.17
2022-11-05T07:36:52.073Z,27.13
2022-11-05T07:39:20.170Z,27.10
2022-11-05T07:41:48.312Z,30.27
2022-11-05T07:44:17.822Z,30.60
2022-11-05T07:46:45.893Z,28.77
2022-11-05T07:49:13.966Z,29.17
2022-11-05T07:51:42.047Z,27.47
2022-11-05T07:54:10.172Z,26.60
2022-11-05T07:56:38.900Z,26.77
2022-11-05T07:59:08.225Z,26.40
2022-11-05T08:01:37.836Z,28.27
2022-11-05T08:04:06.184Z,29.10
2022-11-05T08:06:34.275Z,26.93
2022-11-05T08:09:02.301Z,27.30
2022-11-05T08:11:30.337Z,26.63
2022-11-05T08:13:58.473Z,27.70
2022-11-05T08:16:26.524Z,26.83
2022-11-05T08:18:55.994Z,26.13
2022-11-05T08:21:24.560Z,25.90
2022-11-05T08:23:52.607Z,24.93
2022-11-05T08:26:20.775Z,26.97
2022-11-05T08:28:48.803Z,26.27
2022-11-05T08:31:18.187Z,26.50
2022-11-05T08:33:46.299Z,26.90
2022-11-05T08:36:15.895Z,27.50
2022-11-05T08:38:43.976Z,26.90
2022-11-05T08:41:12.139Z,26.67
2022-11-05T08:43:40.189Z,26.83
2022-11-05T08:46:08.267Z,27.37
2022-11-05T08:48:36.423Z,29.13
2022-11-05T08:51:04.495Z,26.83
2022-11-05T08:53:33.923Z,27.23
2022-11-05T08:56:01.994Z,28.00
2022-11-05T08:58:30.946Z,27.83
2022-11-05T09:01:04.546Z,28.23
2022-11-05T09:03:33.138Z,28.43
2022-11-05T09:06:01.194Z,28.30
2022-11-05T09:08:29.318Z,27.57
2022-11-05T09:10:58.792Z,29.43
2022-11-05T09:13:27.293Z,28.97
2022-11-05T09:15:55.589Z,30.57
2022-11-05T09:18:23.777Z,29.30
2022-11-05T09:20:51.835Z,29.40
2022-11-05T09:23:20.009Z,27.77
2022-11-05T09:25:48.661Z,27.73
2022-11-05T09:28:20.327Z,27.40
2022-11-05T09:30:50.425Z,27.90
2022-11-05T09:33:20.002Z,26.43
2022-11-05T09:35:48.739Z,24.50
2022-11-05T09:38:17.270Z,25.50
2022-11-05T09:40:55.387Z,25.80
2022-11-05T09:43:31.786Z,26.30
2022-11-05T09:46:04.765Z,25.50
2022-11-05T09:48:35.560Z,24.53
2022-11-05T09:51:05.906Z,24.23
2022-11-05T09:53:38.338Z,24.30
2022-11-05T09:56:15.737Z,25.23
2022-11-05T09:58:50.315Z,24.30
2022-11-05T10:01:24.008Z,23.87
2022-11-05T10:03:55.899Z,23.37
2022-11-05T10:06:27.636Z,22.80
2022-11-05T10:09:03.540Z,23.00
2022-11-05T10:11:37.889Z,23.63
2022-11-05T10:14:16.113Z,22.67
2022-11-05T10:16:50.033Z,23.10
2022-11-05T10:19:24.555Z,22.27
2022-11-05T10:22:11.464Z,22.30
2022-11-05T10:24:42.899Z,24.43
2022-11-05T10:27:16.537Z,24.30
2022-11-05T10:29:46.515Z,24.10
2022-11-05T10:32:22.968Z,24.60
2022-11-05T10:34:51.725Z,23.67
2022-11-05T10:37:21.726Z,24.03
2022-11-05T10:39:50.410Z,23.83
2022-11-05T10:42:37.474Z,24.00
2022-11-05T10:45:15.286Z,24.53
2022-11-05T10:47:55.475Z,24.97
2022-11-05T10:50:26.873Z,22.83
2022-11-05T10:52:59.228Z,23.87
2022-11-05T10:55:30.333Z,24.50
2022-11-05T10:58:10.087Z,23.73
2022-11-05T11:00:39.721Z,23.30
2022-11-05T11:03:35.715Z,22.40
2022-11-05T11:06:07.741Z,22.07
2022-11-05T11:08:37.877Z,22.83
2022-11-05T11:11:09.053Z,27.77
2022-11-05T11:14:00.510Z,25.60
2022-11-05T11:16:38.449Z,24.97
2022-11-05T11:19:25.569Z,23.30
2022-11-05T11:22:21.700Z,23.63
2022-11-05T11:24:53.975Z,23.73
2022-11-05T11:27:28.736Z,21.07
2022-11-05T11:29:59.747Z,20.77
2022-11-05T11:32:35.020Z,20.70
2022-11-05T11:35:04.008Z,21.67
2022-11-05T11:37:35.734Z,20.33
2022-11-05T11:40:10.030Z,23.13
2022-11-05T11:42:42.247Z,20.47
2022-11-05T11:45:19.119Z,24.20
2022-11-05T11:47:50.679Z,21.37
2022-11-05T11:50:37.679Z,24.10
2022-11-05T11:53:30.166Z,22.83
2022-11-05T11:56:01.066Z,24.37
2022-11-05T11:58:41.803Z,23.77
2022-11-05T12:01:49.041Z,22.77
2022-11-05T12:04:37.952Z,24.70
2022-11-05T12:07:24.409Z,23.60
2022-11-05T12:10:04.577Z,20.97
2022-11-05T12:12:42.958Z,22.30
2022-11-05T12:15:29.804Z,22.10
2022-11-05T12:18:03.040Z,24.43
2022-11-05T12:20:48.164Z,23.47
2022-11-05T12:23:48.395Z,23.67
2022-11-05T12:26:24.762Z,24.13
2022-11-05T12:29:25.687Z,22.57
2022-11-05T12:32:07.767Z,23.70
2022-11-05T12:34:51.085Z,22.73
2022-11-05T12:37:31.897Z,23.50
2022-11-05T12:40:30.518Z,22.03
2022-11-05T12:43:11.899Z,21.27
2022-11-05T12:45:46.940Z,21.57
2022-11-05T12:48:37.299Z,22.20
2022-11-05T12:51:18.238Z,21.87
2022-11-05T12:54:02.756Z,21.40
2022-11-05T12:56:36.398Z,20.23
2022-11-05T12:59:11.955Z,20.07
2022-11-05T13:01:44.632Z,20.70
2022-11-05T13:04:22.061Z,19.83
2022-11-05T13:06:56.227Z,22.57
2022-11-05T13:09:30.229Z,21.17
2022-11-05T13:12:01.358Z,21.27
2022-11-05T13:14:34.067Z,23.10
2022-11-05T13:17:04.498Z,22.03
2022-11-05T13:19:37.814Z,24.27
2022-11-05T13:22:14.639Z,23.07
2022-11-05T13:24:50.561Z,25.40
2022-11-05T13:27:40.386Z,23.53
2022-11-05T13:30:25.959Z,24.00
2022-11-05T13:32:59.323Z,23.87
2022-11-05T13:35:32.260Z,25.10
2022-11-05T13:38:24.234Z,24.70
2022-11-05T13:41:07.595Z,24.87
2022-11-05T13:44:03.701Z,23.60
2022-11-05T13:46:46.611Z,24.73
2022-11-05T13:49:41.027Z,24.47
2022-11-05T13:52:33.979Z,25.27
2022-11-05T13:55:25.420Z,24.77
2022-11-05T13:58:37.318Z,25.17
2022-11-05T14:01:18.630Z,34.50
2022-11-05T14:03:49.016Z,25.90
2022-11-05T14:06:26.213Z,25.77
2022-11-05T14:09:00.825Z,27.00
2022-11-05T14:11:33.060Z,27.33
2022-11-05T14:14:05.524Z,29.73
2022-11-05T14:16:48.944Z,31.47
2022-11-05T14:19:34.127Z,26.37
2022-11-05T14:22:38.798Z,28.33
2022-11-05T14:25:43.844Z,27.47
2022-11-05T14:28:45.195Z,33.07
2022-11-05T14:31:54.434Z,31.97
2022-11-05T14:34:23.950Z,32.37
2022-11-05T14:37:22.885Z,28.70
2022-11-05T14:39:51.493Z,33.20
2022-11-05T14:42:24.363Z,34.70
2022-11-05T14:45:23.789Z,35.33
2022-11-05T14:47:55.847Z,36.93
2022-11-05T14:50:32.189Z,42.90
2022-11-05T14:53:08.074Z,39.67
2022-11-05T14:55:40.376Z,42.30
2022-11-05T14:58:27.917Z,46.27
2022-11-05T15:00:56.896Z,51.40
2022-11-05T15:04:00.408Z,48.20
2022-11-05T15:06:33.369Z,46.00
2022-11-05T15:09:28.003Z,41.60
2022-11-05T15:12:05.397Z,42.37
2022-11-05T15:14:37.599Z,43.30
2022-11-05T15:17:16.824Z,43.60
2022-11-05T15:19:45.923Z,47.90
2022-11-05T15:22:27.592Z,46.70
2022-11-05T15:24:56.844Z,46.77
2022-11-05T15:27:45.089Z,46.50
2022-11-05T15:30:17.830Z,43.67
2022-11-05T15:32:46.331Z,45.37
2022-11-05T15:35:23.580Z,47.17
2022-11-05T15:38:00.366Z,44.43
2022-11-05T15:40:32.067Z,45.20
2022-11-05T15:43:10.743Z,45.70
2022-11-05T15:45:40.233Z,46.80
2022-11-05T15:48:15.901Z,44.50
2022-11-05T15:50:44.034Z,45.67
2022-11-05T15:56:23.071Z,47.20
2022-11-05T15:58:54.046Z,46.87
2022-11-05T16:01:28.013Z,45.47
2022-11-05T16:03:58.406Z,46.60
2022-11-05T16:06:31.149Z,50.30
2022-11-05T16:09:00.731Z,48.53
2022-11-05T16:11:29.074Z,48.07
2022-11-05T16:14:16.061Z,49.10
2022-11-05T16:16:45.144Z,49.77
2022-11-05T16:19:40.893Z,47.47
2022-11-05T16:22:09.342Z,45.20
2022-11-05T16:24:38.949Z,46.80
2022-11-05T16:27:07.599Z,47.60
2022-11-05T16:29:37.661Z,47.97
2022-11-05T16:32:14.598Z,46.90
2022-11-05T16:34:46.799Z,46.80
2022-11-05T16:37:16.987Z,49.00
2022-11-05T16:39:46.465Z,48.33
2022-11-05T16:42:40.677Z,50.33
2022-11-05T16:45:11.761Z,46.47
2022-11-05T16:47:39.834Z,46.00
2022-11-05T16:50:17.084Z,46.77
2022-11-05T16:52:45.877Z,46.77
2022-11-05T16:55:16.413Z,47.70
2022-11-05T16:57:46.649Z,47.53
2022-11-05T17:00:17.826Z,48.30
2022-11-05T17:02:46.693Z,48.93
2022-11-05T17:05:23.210Z,47.70
2022-11-05T17:07:51.703Z,48.63
2022-11-05T17:10:21.706Z,46.60
2022-11-05T17:12:50.268Z,46.90
2022-11-05T17:15:24.565Z,46.70
2022-11-05T17:17:53.954Z,48.20
2022-11-05T17:20:36.553Z,47.00
2022-11-05T17:23:07.962Z,51.33
2022-11-05T17:25:37.736Z,51.00
2022-11-05T17:28:06.567Z,50.67
2022-11-05T17:30:34.742Z,54.40
2022-11-05T17:33:02.901Z,52.77
2022-11-05T17:35:31.124Z,54.80
2022-11-05T17:37:59.294Z,58.33
2022-11-05T17:40:28.437Z,53.70
2022-11-05T17:43:00.790Z,54.70
2022-11-05T17:45:29.149Z,54.53
2022-11-05T17:47:57.546Z,56.33
2022-11-05T17:50:25.842Z,54.63
2022-11-05T17:52:53.926Z,53.00
2022-11-05T17:55:22.048Z,60.30
2022-11-05T17:57:51.406Z,58.30
2022-11-05T18:00:22.643Z,55.83
2022-11-05T18:02:51.519Z,60.57
2022-11-05T18:05:20.275Z,58.17
2022-11-05T18:07:49.334Z,60.20
2022-11-05T18:10:18.023Z,63.67
2022-11-05T18:12:46.479Z,62.63
2022-11-05T18:15:15.803Z,65.00
2022-11-05T18:17:47.158Z,63.60
2022-11-05T18:20:19.182Z,66.57
2022-11-05T18:22:49.586Z,62.23
2022-11-05T18:25:18.492Z,67.67
2022-11-05T18:27:46.693Z,68.27
2022-11-05T18:30:16.058Z,63.20
2022-11-05T18:32:46.208Z,65.80
2022-11-05T18:35:15.085Z,64.67
2022-11-05T18:37:43.555Z,65.73
2022-11-05T18:40:14.256Z,65.87
2022-11-05T18:42:42.891Z,61.70
2022-11-05T18:45:12.602Z,61.80
2022-11-05T18:47:41.142Z,66.10
2022-11-05T18:50:11.256Z,62.97
2022-11-05T18:52:39.329Z,62.10
2022-11-05T18:55:08.631Z,63.37
2022-11-05T18:57:36.742Z,64.00
2022-11-05T19:00:06.584Z,65.33
2022-11-05T19:02:34.854Z,63.37
2022-11-05T19:07:52.809Z,69.90
2022-11-05T19:10:21.118Z,71.93
2022-11-05T19:12:49.394Z,69.10
2022-11-05T19:15:17.526Z,71.80
2022-11-05T19:17:45.720Z,70.17
2022-11-05T19:20:14.364Z,76.73
2022-11-05T19:22:42.497Z,74.70
2022-11-05T19:25:11.961Z,75.87
2022-11-05T19:27:41.090Z,71.93
2022-11-05T19:30:10.057Z,71.37
2022-11-05T19:32:38.206Z,70.60
2022-11-05T19:35:06.959Z,73.10
2022-11-05T19:37:35.096Z,72.33
2022-11-05T19:40:03.151Z,68.53
2022-11-05T19:42:32.633Z,73.73
2022-11-05T19:45:22.918Z,71.60
2022-11-05T19:47:48.999Z,69.27
2022-11-05T19:50:17.119Z,71.27
2022-11-05T19:52:45.235Z,66.70
2022-11-05T19:55:13.658Z,68.93
2022-11-05T19:57:43.080Z,66.33
2022-11-05T20:00:12.271Z,65.67
2022-11-05T20:02:40.366Z,69.53
2022-11-05T20:05:09.391Z,71.83
2022-11-05T20:07:37.456Z,68.20
2022-11-05T20:10:06.653Z,66.10
2022-11-05T20:12:35.443Z,66.50
2022-11-05T20:15:05.843Z,65.60
2022-11-05T20:17:33.900Z,67.37
2022-11-05T20:20:02.070Z,66.20
2022-11-05T20:22:30.192Z,71.63
2022-11-05T20:24:58.307Z,68.20
2022-11-05T20:27:26.390Z,67.60
2022-11-05T20:29:54.831Z,64.13
2022-11-05T20:32:24.387Z,66.10
2022-11-05T20:34:52.484Z,64.40
2022-11-05T20:37:20.652Z,68.23
2022-11-05T20:39:48.755Z,67.57
2022-11-05T20:42:17.372Z,72.37
2022-11-05T20:44:45.443Z,70.17
2022-11-05T20:47:13.574Z,68.20
2022-11-05T20:49:43.144Z,68.93
2022-11-05T20:52:12.228Z,67.70
2022-11-05T20:54:40.289Z,74.20
2022-11-05T20:57:08.823Z,67.87
2022-11-05T20:59:36.927Z,70.17
2022-11-05T21:02:05.225Z,76.13
2022-11-05T21:04:33.775Z,72.30
2022-11-05T21:07:03.271Z,71.93
2022-11-05T21:09:31.490Z,75.27
2022-11-05T21:12:12.062Z,78.00
2022-11-05T21:14:41.312Z,79.77
2022-11-05T21:17:11.716Z,78.27
2022-11-05T21:19:40.314Z,73.30
2022-11-05T21:22:09.856Z,73.10
2022-11-05T21:24:37.984Z,75.77
2022-11-05T21:27:06.053Z,78.00
2022-11-05T21:29:35.203Z,77.43
2022-11-05T21:32:03.259Z,74.50
2022-11-05T21:34:31.362Z,75.33
2022-11-05T21:36:59.611Z,75.97
2022-11-05T21:39:29.085Z,72.13
2022-11-05T21:41:57.444Z,72.00
2022-11-05T21:44:25.550Z,73.03
2022-11-05T21:46:57.337Z,69.60
2022-11-05T21:49:25.739Z,69.03
2022-11-05T21:52:11.498Z,75.20
2022-11-05T21:54:58.309Z,66.67
2022-11-05T21:57:55.505Z,69.93
2022-11-05T22:00:23.734Z,68.37
2022-11-05T22:02:52.019Z,69.60
2022-11-05T22:05:20.171Z,70.97
2022-11-05T22:07:48.258Z,71.47
2022-11-05T22:10:17.877Z,70.00
2022-11-05T22:12:46.638Z,73.97
2022-11-05T22:15:15.195Z,69.00
2022-11-05T22:17:46.812Z,66.20
2022-11-05T22:20:16.285Z,67.50
2022-11-05T22:22:44.854Z,69.77
2022-11-05T22:25:14.441Z,69.67
2022-11-05T22:27:44.349Z,73.70
2022-11-05T22:30:14.450Z,69.37
2022-11-05T22:32:42.941Z,67.60
2022-11-05T22:35:11.372Z,67.73
2022-11-05T22:37:39.599Z,68.00
2022-11-05T22:40:08.508Z,68.67
2022-11-05T22:42:36.688Z,65.97
2022-11-05T22:45:07.364Z,61.40
2022-11-05T22:47:35.422Z,63.57
2022-11-05T22:50:03.541Z,67.60
2022-11-05T22:52:32.835Z,64.50
2022-11-05T22:55:02.717Z,60.50
2022-11-05T22:57:31.238Z,63.80
2022-11-05T22:59:59.346Z,61.57
2022-11-05T23:02:28.882Z,62.97
2022-11-05T23:04:57.112Z,60.47
2022-11-05T23:07:42.544Z,60.50
2022-11-05T23:10:28.550Z,61.97
2022-11-05T23:12:57.048Z,59.90
2022-11-05T23:15:42.761Z,61.17
2022-11-05T23:18:29.753Z,60.43
2022-11-05T23:21:19.268Z,59.00
2022-11-05T23:24:06.305Z,56.10
2022-11-05T23:26:51.479Z,56.60
2022-11-05T23:29:20.447Z,56.10
2022-11-05T23:32:21.238Z,60.20
2022-11-05T23:34:50.902Z,59.47
2022-11-05T23:37:36.824Z,56.77
2022-11-05T23:40:07.170Z,61.03
2022-11-05T23:42:53.184Z,58.30
2022-11-05T23:45:47.400Z,57.07
2022-11-05T23:48:18.937Z,53.47
2022-11-05T23:50:53.099Z,51.90
2022-11-05T23:53:21.405Z,57.30
2022-11-05T23:55:49.542Z,54.50
2022-11-05T23:58:18.434Z,51.57
